createdAt,value
2022-08-19T00:00:06.853Z,20.58
2022-08-19T00:02:11.343Z,20.62
2022-08-19T00:03:10.892Z,20.57
2022-08-19T00:05:14.920Z,20.57
2022-08-19T00:06:14.936Z,20.61
2022-08-19T00:08:08.422Z,20.58
2022-08-19T00:09:07.898Z,20.64
2022-08-19T00:11:11.915Z,20.50
2022-08-19T00:12:11.934Z,20.51
2022-08-19T00:14:16.433Z,20.48
2022-08-19T00:15:15.965Z,20.42
2022-08-19T00:17:09.451Z,20.51
2022-08-19T00:18:08.925Z,20.42
2022-08-19T00:20:13.924Z,20.47
2022-08-19T00:21:12.973Z,20.43
2022-08-19T00:23:16.990Z,20.42
2022-08-19T00:24:17.019Z,20.38
2022-08-19T00:26:21.506Z,20.36
2022-08-19T00:27:24.960Z,20.33
2022-08-19T00:29:25.078Z,20.29
2022-08-19T00:30:25.098Z,20.29
2022-08-19T00:32:29.590Z,20.20
2022-08-19T00:33:29.144Z,20.16
2022-08-19T00:35:33.166Z,20.36
2022-08-19T00:36:33.197Z,20.14
2022-08-19T00:38:38.336Z,20.14
2022-08-19T00:39:37.287Z,20.16
2022-08-19T00:41:41.259Z,20.21
2022-08-19T00:42:41.272Z,20.24
2022-08-19T00:44:45.767Z,20.16
2022-08-19T00:45:45.323Z,20.11
2022-08-19T00:47:38.265Z,20.16
2022-08-19T00:48:38.288Z,20.16
2022-08-19T00:50:51.941Z,20.06
2022-08-19T00:51:42.327Z,20.10
2022-08-19T00:53:46.361Z,20.10
2022-08-19T00:54:49.651Z,20.10
2022-08-19T00:56:50.865Z,20.06
2022-08-19T00:57:50.410Z,20.08
2022-08-19T01:00:01.509Z,20.05
2022-08-19T01:00:54.474Z,20.02
2022-08-19T01:02:58.481Z,20.01
2022-08-19T01:03:58.882Z,20.03
2022-08-19T01:06:03.056Z,20.05
2022-08-19T01:07:02.540Z,19.98
2022-08-19T01:09:06.565Z,19.92
2022-08-19T01:10:06.591Z,19.95
2022-08-19T01:12:11.075Z,19.94
2022-08-19T01:13:10.623Z,19.88
2022-08-19T01:15:14.657Z,19.86
2022-08-19T01:16:14.670Z,19.80
2022-08-19T01:18:08.154Z,19.83
2022-08-19T01:19:07.632Z,19.76
2022-08-19T01:21:11.658Z,19.73
2022-08-19T01:22:14.568Z,19.76
2022-08-19T01:24:16.168Z,19.71
2022-08-19T01:25:15.719Z,19.74
2022-08-19T01:27:10.815Z,19.71
2022-08-19T01:28:10.689Z,19.71
2022-08-19T01:30:12.705Z,19.66
2022-08-19T01:31:26.464Z,19.61
2022-08-19T01:33:17.215Z,19.54
2022-08-19T01:34:16.766Z,19.55
2022-08-19T01:36:20.787Z,19.48
2022-08-19T01:37:25.003Z,19.48
2022-08-19T01:39:25.303Z,19.47
2022-08-19T01:40:24.848Z,19.48
2022-08-19T01:42:30.136Z,19.46
2022-08-19T01:43:28.890Z,19.41
2022-08-19T01:45:33.385Z,19.47
2022-08-19T01:46:32.931Z,19.41
2022-08-19T01:48:36.974Z,19.40
2022-08-19T01:49:37.006Z,19.44
2022-08-19T01:51:30.477Z,19.47
2022-08-19T01:52:29.972Z,19.40
2022-08-19T01:54:34.477Z,19.39
2022-08-19T01:55:34.026Z,19.36
2022-08-19T01:57:27.000Z,19.36
2022-08-19T01:58:27.015Z,19.33
2022-08-19T02:00:31.515Z,19.29
2022-08-19T02:01:31.391Z,19.25
2022-08-19T02:03:35.084Z,19.28
2022-08-19T02:04:35.106Z,19.18
2022-08-19T02:06:39.600Z,19.19
2022-08-19T02:07:39.145Z,19.13
2022-08-19T02:09:43.199Z,19.07
2022-08-19T02:10:43.230Z,19.10
2022-08-19T02:12:50.715Z,19.10
2022-08-19T02:13:47.253Z,19.02
2022-08-19T02:15:51.292Z,19.00
2022-08-19T02:16:51.297Z,18.99
2022-08-19T02:18:55.795Z,18.95
2022-08-19T02:19:55.335Z,18.91
2022-08-19T02:21:59.371Z,18.81
2022-08-19T02:22:59.389Z,18.84
2022-08-19T02:25:03.891Z,18.90
2022-08-19T02:26:03.423Z,18.85
2022-08-19T02:27:56.398Z,18.82
2022-08-19T02:28:56.410Z,18.73
2022-08-19T02:31:00.924Z,18.62
2022-08-19T02:32:00.450Z,18.58
2022-08-19T02:34:04.481Z,18.57
2022-08-19T02:35:04.516Z,18.63
2022-08-19T02:37:08.994Z,18.63
2022-08-19T02:38:08.534Z,18.69
2022-08-19T02:40:12.871Z,18.65
2022-08-19T02:41:12.574Z,18.70
2022-08-19T02:43:17.082Z,18.55
2022-08-19T02:44:30.612Z,18.65
2022-08-19T02:46:09.762Z,18.62
2022-08-19T02:47:09.776Z,18.66
2022-08-19T02:49:14.277Z,18.62
2022-08-19T02:50:13.817Z,18.62
2022-08-19T02:52:17.841Z,18.72
2022-08-19T02:53:17.860Z,18.66
2022-08-19T02:55:22.356Z,18.67
2022-08-19T02:56:21.902Z,18.60
2022-08-19T02:58:25.941Z,18.70
2022-08-19T02:59:25.956Z,18.58
2022-08-19T03:01:30.532Z,18.58
2022-08-19T03:02:30.005Z,18.67
2022-08-19T03:04:34.029Z,18.66
2022-08-19T03:05:48.084Z,18.65
2022-08-19T03:07:27.046Z,18.57
2022-08-19T03:08:27.028Z,18.58
2022-08-19T03:10:31.029Z,18.54
2022-08-19T03:11:31.054Z,18.55
2022-08-19T03:13:27.528Z,18.45
2022-08-19T03:14:24.209Z,18.52
2022-08-19T03:16:28.720Z,18.51
2022-08-19T03:17:28.740Z,18.50
2022-08-19T03:18:28.764Z,18.45
2022-08-19T03:19:28.793Z,18.45
2022-08-19T03:20:28.823Z,18.48
2022-08-19T03:21:28.848Z,18.48
2022-08-19T03:22:28.874Z,18.52
2022-08-19T03:23:28.900Z,18.54
2022-08-19T03:24:28.928Z,18.52
2022-08-19T03:25:28.955Z,18.51
2022-08-19T03:26:28.988Z,18.52
2022-08-19T03:27:34.185Z,18.65
2022-08-19T03:28:29.041Z,18.55
2022-08-19T03:29:30.972Z,18.58
2022-08-19T03:30:29.092Z,18.62
2022-08-19T03:31:44.156Z,18.65
2022-08-19T03:32:32.577Z,18.60
2022-08-19T03:33:29.172Z,18.63
2022-08-19T03:34:29.201Z,18.60
2022-08-19T03:35:29.227Z,18.63
2022-08-19T03:36:29.539Z,18.66
2022-08-19T03:37:29.285Z,18.62
2022-08-19T03:38:29.310Z,18.65
2022-08-19T03:39:29.405Z,18.62
2022-08-19T03:40:29.367Z,18.60
2022-08-19T03:41:44.455Z,18.57
2022-08-19T03:42:38.705Z,18.54
2022-08-19T03:43:29.468Z,18.62
2022-08-19T03:44:29.478Z,18.63
2022-08-19T03:45:29.502Z,18.57
2022-08-19T03:46:29.528Z,18.70
2022-08-19T03:47:29.556Z,18.62
2022-08-19T03:48:29.584Z,18.65
2022-08-19T03:49:29.607Z,18.60
2022-08-19T03:50:29.646Z,18.57
2022-08-19T03:51:30.840Z,18.65
2022-08-19T03:52:29.694Z,18.66
2022-08-19T03:53:29.716Z,18.60
2022-08-19T03:54:29.747Z,18.51
2022-08-19T03:55:29.776Z,18.58
2022-08-19T03:56:29.803Z,18.52
2022-08-19T03:57:31.740Z,18.51
2022-08-19T03:58:29.855Z,18.52
2022-08-19T03:59:29.882Z,18.55
2022-08-19T04:00:29.910Z,18.48
2022-08-19T04:01:34.785Z,18.48
2022-08-19T04:02:29.970Z,18.47
2022-08-19T04:03:29.993Z,18.48
2022-08-19T04:04:30.037Z,18.44
2022-08-19T04:05:30.051Z,18.42
2022-08-19T04:06:30.075Z,18.45
2022-08-19T04:07:30.107Z,18.44
2022-08-19T04:08:30.129Z,18.45
2022-08-19T04:09:30.158Z,18.54
2022-08-19T04:10:30.188Z,18.48
2022-08-19T04:11:42.972Z,18.48
2022-08-19T04:12:30.237Z,18.55
2022-08-19T04:13:30.264Z,18.60
2022-08-19T04:14:30.292Z,18.54
2022-08-19T04:15:30.320Z,18.55
2022-08-19T04:16:34.950Z,18.50
2022-08-19T04:17:30.373Z,18.48
2022-08-19T04:18:33.575Z,18.50
2022-08-19T04:19:30.427Z,18.50
2022-08-19T04:20:30.455Z,18.47
2022-08-19T04:21:30.485Z,18.45
2022-08-19T04:22:30.512Z,18.45
2022-08-19T04:23:30.539Z,18.48
2022-08-19T04:24:30.567Z,18.50
2022-08-19T04:25:30.590Z,18.51
2022-08-19T04:26:30.631Z,18.45
2022-08-19T04:27:30.650Z,18.50
2022-08-19T04:28:30.673Z,18.48
2022-08-19T04:29:30.702Z,18.55
2022-08-19T04:30:30.728Z,18.55
2022-08-19T04:31:30.754Z,18.57
2022-08-19T04:32:30.785Z,18.60
2022-08-19T04:33:30.809Z,18.51
2022-08-19T04:34:30.839Z,18.54
2022-08-19T04:35:30.864Z,18.65
2022-08-19T04:36:30.890Z,18.50
2022-08-19T04:37:35.071Z,18.60
2022-08-19T04:38:30.947Z,18.57
2022-08-19T04:39:31.023Z,18.48
2022-08-19T04:40:31.002Z,18.47
2022-08-19T04:41:31.027Z,18.47
2022-08-19T04:42:31.195Z,18.37
2022-08-19T04:43:31.079Z,18.44
2022-08-19T04:44:31.112Z,18.39
2022-08-19T04:45:38.816Z,18.44
2022-08-19T04:46:39.663Z,18.39
2022-08-19T04:47:49.313Z,18.39
2022-08-19T04:48:31.216Z,18.41
2022-08-19T04:49:31.247Z,18.41
2022-08-19T04:50:31.273Z,18.47
2022-08-19T04:51:31.303Z,18.50
2022-08-19T04:52:31.326Z,18.47
2022-08-19T04:53:37.713Z,18.54
2022-08-19T04:54:37.751Z,18.55
2022-08-19T04:55:34.365Z,18.50
2022-08-19T04:56:31.468Z,18.62
2022-08-19T04:57:31.464Z,18.52
2022-08-19T04:58:31.491Z,18.62
2022-08-19T04:59:31.521Z,18.57
2022-08-19T05:00:31.547Z,18.63
2022-08-19T05:01:31.633Z,18.62
2022-08-19T05:02:31.602Z,18.66
2022-08-19T05:03:31.628Z,18.69
2022-08-19T05:04:31.671Z,18.66
2022-08-19T05:05:31.680Z,18.62
2022-08-19T05:06:31.713Z,18.60
2022-08-19T05:07:31.738Z,18.62
2022-08-19T05:08:31.860Z,18.57
2022-08-19T05:09:42.174Z,18.57
2022-08-19T05:10:31.820Z,18.62
2022-08-19T05:11:31.848Z,18.66
2022-08-19T05:12:31.878Z,18.69
2022-08-19T05:13:31.903Z,18.72
2022-08-19T05:14:31.930Z,18.72
2022-08-19T05:15:31.957Z,18.70
2022-08-19T05:16:31.980Z,18.66
2022-08-19T05:17:37.478Z,18.67
2022-08-19T05:18:32.037Z,18.62
2022-08-19T05:19:33.557Z,18.70
2022-08-19T05:20:32.095Z,18.57
2022-08-19T05:21:32.120Z,18.66
2022-08-19T05:22:32.148Z,18.67
2022-08-19T05:23:32.174Z,18.67
2022-08-19T05:24:32.204Z,18.66
2022-08-19T05:25:32.231Z,18.73
2022-08-19T05:26:32.258Z,18.67
2022-08-19T05:27:32.284Z,18.72
2022-08-19T05:28:32.315Z,18.70
2022-08-19T05:29:36.430Z,18.69
2022-08-19T05:30:46.516Z,18.63
2022-08-19T05:31:32.396Z,18.69
2022-08-19T05:32:32.423Z,18.62
2022-08-19T05:33:32.448Z,18.58
2022-08-19T05:34:32.480Z,18.58
2022-08-19T05:35:34.742Z,18.67
2022-08-19T05:36:32.532Z,18.78
2022-08-19T05:37:32.562Z,18.78
2022-08-19T05:38:32.588Z,18.78
2022-08-19T05:39:32.654Z,18.85
2022-08-19T05:40:32.648Z,18.84
2022-08-19T05:41:32.670Z,18.88
2022-08-19T05:42:32.696Z,18.81
2022-08-19T05:43:32.718Z,18.84
2022-08-19T05:44:32.752Z,18.95
2022-08-19T05:45:32.775Z,18.91
2022-08-19T05:46:32.805Z,18.95
2022-08-19T05:47:32.836Z,18.92
2022-08-19T05:48:32.862Z,19.06
2022-08-19T05:49:32.892Z,19.06
2022-08-19T05:50:32.915Z,19.06
2022-08-19T05:51:32.947Z,18.99
2022-08-19T05:52:33.457Z,19.06
2022-08-19T05:53:33.010Z,19.07
2022-08-19T05:54:33.030Z,19.25
2022-08-19T05:55:33.053Z,19.25
2022-08-19T05:56:33.083Z,19.22
2022-08-19T05:57:33.112Z,19.16
2022-08-19T05:58:33.137Z,19.19
2022-08-19T05:59:33.163Z,19.19
2022-08-19T06:00:33.192Z,19.28
2022-08-19T06:01:33.220Z,19.25
2022-08-19T06:02:33.303Z,19.39
2022-08-19T06:03:33.275Z,19.46
2022-08-19T06:04:33.306Z,19.51
2022-08-19T06:05:33.333Z,19.58
2022-08-19T06:06:33.356Z,19.66
2022-08-19T06:07:33.386Z,19.73
2022-08-19T06:08:34.185Z,19.80
2022-08-19T06:09:33.448Z,19.92
2022-08-19T06:10:33.473Z,19.96
2022-08-19T06:11:33.501Z,20.10
2022-08-19T06:12:33.529Z,20.26
2022-08-19T06:13:35.238Z,20.38
2022-08-19T06:14:33.587Z,20.43
2022-08-19T06:15:33.611Z,20.70
2022-08-19T06:16:33.660Z,21.03
2022-08-19T06:17:33.672Z,21.38
2022-08-19T06:18:33.698Z,21.80
2022-08-19T06:19:33.729Z,22.21
2022-08-19T06:20:54.461Z,22.35
2022-08-19T06:21:33.787Z,22.58
2022-08-19T06:22:33.815Z,22.76
2022-08-19T06:23:33.847Z,22.91
2022-08-19T06:24:33.876Z,23.23
2022-08-19T06:25:33.905Z,23.48
2022-08-19T06:26:33.987Z,23.90
2022-08-19T06:27:33.965Z,24.16
2022-08-19T06:28:33.997Z,24.46
2022-08-19T06:29:34.033Z,24.65
2022-08-19T06:30:34.056Z,24.80
2022-08-19T06:31:34.089Z,25.08
2022-08-19T06:32:34.122Z,25.02
2022-08-19T06:33:34.152Z,25.08
2022-08-19T06:34:34.211Z,25.02
2022-08-19T06:35:34.233Z,25.03
2022-08-19T06:36:34.247Z,24.85
2022-08-19T06:37:34.276Z,24.83
2022-08-19T06:38:34.308Z,25.05
2022-08-19T06:39:34.384Z,25.24
2022-08-19T06:40:34.443Z,25.27
2022-08-19T06:41:34.405Z,25.39
2022-08-19T06:42:34.436Z,25.43
2022-08-19T06:43:34.491Z,25.32
2022-08-19T06:44:34.500Z,25.27
2022-08-19T06:45:39.266Z,25.28
2022-08-19T06:46:35.292Z,25.38
2022-08-19T06:47:34.600Z,25.43
2022-08-19T06:48:38.991Z,25.51
2022-08-19T06:49:34.666Z,25.64
2022-08-19T06:50:34.696Z,25.90
2022-08-19T06:51:34.733Z,25.97
2022-08-19T06:52:34.762Z,25.99
2022-08-19T06:53:34.796Z,26.13
2022-08-19T06:54:37.777Z,25.90
2022-08-19T06:55:34.861Z,25.92
2022-08-19T06:56:34.896Z,25.92
2022-08-19T06:57:34.927Z,26.01
2022-08-19T06:58:34.961Z,26.12
2022-08-19T06:59:34.991Z,26.33
2022-08-19T07:00:35.135Z,26.43
2022-08-19T07:01:35.061Z,26.57
2022-08-19T07:02:35.095Z,26.66
2022-08-19T07:03:35.125Z,26.81
2022-08-19T07:04:35.168Z,26.77
2022-08-19T07:05:35.194Z,26.81
2022-08-19T07:06:43.954Z,26.77
2022-08-19T07:07:35.260Z,26.81
2022-08-19T07:08:35.325Z,26.70
2022-08-19T07:09:35.327Z,26.57
2022-08-19T07:10:35.362Z,26.43
2022-08-19T07:11:35.394Z,26.20
2022-08-19T07:12:36.055Z,25.97
2022-08-19T07:13:35.462Z,25.92
2022-08-19T07:14:35.493Z,25.57
2022-08-19T07:15:35.525Z,25.28
2022-08-19T07:16:36.643Z,24.99
2022-08-19T07:17:35.594Z,24.81
2022-08-19T07:18:35.622Z,24.68
2022-08-19T07:19:35.663Z,24.55
2022-08-19T07:20:35.688Z,24.55
2022-08-19T07:21:35.716Z,24.45
2022-08-19T07:22:35.748Z,24.20
2022-08-19T07:24:35.818Z,24.09
2022-08-19T07:25:35.847Z,24.21
2022-08-19T07:26:35.877Z,24.31
2022-08-19T07:27:35.909Z,24.31
2022-08-19T07:28:35.941Z,24.31
2022-08-19T07:29:35.979Z,24.46
2022-08-19T07:30:36.002Z,24.47
2022-08-19T07:31:36.035Z,24.58
2022-08-19T07:32:36.068Z,24.55
2022-08-19T07:33:36.101Z,24.50
2022-08-19T07:34:36.130Z,24.40
2022-08-19T07:35:36.162Z,24.31
2022-08-19T07:36:36.189Z,24.24
2022-08-19T07:37:36.228Z,24.15
2022-08-19T07:38:36.253Z,24.16
2022-08-19T07:39:36.304Z,24.22
2022-08-19T07:40:36.321Z,24.39
2022-08-19T07:41:36.355Z,24.35
2022-08-19T07:42:36.380Z,24.42
2022-08-19T07:43:36.412Z,24.46
2022-08-19T07:44:36.492Z,24.50
2022-08-19T07:45:36.553Z,24.61
2022-08-19T07:46:36.505Z,24.71
2022-08-19T07:47:49.524Z,24.68
2022-08-19T07:48:43.757Z,24.88
2022-08-19T07:50:30.054Z,24.84
2022-08-19T07:51:37.020Z,25.00
2022-08-19T07:53:39.169Z,24.91
2022-08-19T07:54:33.792Z,24.95
2022-08-19T07:56:37.822Z,24.88
2022-08-19T07:57:37.891Z,24.96
2022-08-19T07:59:42.343Z,25.10
2022-08-19T08:00:41.897Z,25.21
2022-08-19T08:02:45.933Z,25.28
2022-08-19T08:03:45.946Z,25.58
2022-08-19T08:05:50.453Z,25.77
2022-08-19T08:06:50.000Z,25.79
2022-08-19T08:08:54.039Z,25.83
2022-08-19T08:12:01.977Z,25.80
2022-08-19T08:13:09.354Z,25.72
2022-08-19T08:15:02.607Z,25.69
2022-08-19T08:16:02.168Z,25.61
2022-08-19T08:17:55.117Z,25.38
2022-08-19T08:18:55.142Z,25.32
2022-08-19T08:20:59.656Z,25.35
2022-08-19T08:21:59.207Z,25.27
2022-08-19T08:24:03.245Z,25.17
2022-08-19T08:25:03.266Z,25.27
2022-08-19T08:27:11.403Z,25.45
2022-08-19T08:28:07.324Z,25.57
2022-08-19T08:30:11.356Z,25.91
2022-08-19T08:31:11.379Z,25.98
2022-08-19T08:34:15.441Z,25.91
2022-08-19T08:36:19.940Z,25.65
2022-08-19T08:37:19.495Z,25.40
2022-08-19T08:39:23.535Z,25.23
2022-08-19T08:40:23.600Z,25.14
2022-08-19T08:42:28.052Z,25.23
2022-08-19T08:43:27.612Z,25.18
2022-08-19T08:45:32.950Z,25.32
2022-08-19T08:46:32.277Z,25.46
2022-08-19T08:48:36.664Z,25.77
2022-08-19T08:49:35.723Z,25.97
2022-08-19T08:52:39.775Z,26.33
2022-08-19T08:54:48.854Z,26.21
2022-08-19T08:55:43.831Z,26.21
2022-08-19T08:57:37.021Z,26.23
2022-08-19T08:58:36.805Z,26.25
2022-08-19T09:00:41.306Z,26.32
2022-08-19T09:01:40.897Z,26.39
2022-08-19T09:03:44.891Z,26.47
2022-08-19T09:04:44.921Z,26.43
2022-08-19T09:06:49.421Z,26.47
2022-08-19T09:07:49.136Z,26.52
2022-08-19T09:09:53.009Z,26.54
2022-08-19T09:10:55.395Z,26.35
2022-08-19T09:12:57.530Z,26.37
2022-08-19T09:13:57.089Z,26.30
2022-08-19T09:16:02.099Z,26.21
2022-08-19T09:17:01.146Z,26.12
2022-08-19T09:19:06.456Z,26.15
2022-08-19T09:20:05.202Z,26.21
2022-08-19T09:22:09.699Z,26.47
2022-08-19T09:23:09.259Z,26.54
2022-08-19T09:25:13.297Z,26.72
2022-08-19T09:26:13.318Z,26.73
2022-08-19T09:28:21.936Z,26.80
2022-08-19T09:29:06.304Z,26.76
2022-08-19T09:31:10.336Z,26.95
2022-08-19T09:32:26.677Z,27.17
2022-08-19T09:34:21.480Z,27.36
2022-08-19T09:35:14.412Z,27.31
2022-08-19T09:37:18.460Z,27.21
2022-08-19T09:38:18.479Z,27.13
2022-08-19T09:40:23.008Z,26.91
2022-08-19T09:41:22.537Z,26.75
2022-08-19T09:42:30.292Z,26.73
2022-08-19T09:43:32.850Z,26.82
2022-08-19T09:44:22.635Z,26.84
2022-08-19T09:45:22.715Z,26.76
2022-08-19T09:46:22.702Z,26.85
2022-08-19T09:47:22.730Z,26.81
2022-08-19T09:48:23.711Z,26.77
2022-08-19T09:49:22.796Z,26.70
2022-08-19T09:50:22.830Z,26.76
2022-08-19T09:51:23.327Z,26.77
2022-08-19T09:52:22.903Z,26.60
2022-08-19T09:53:22.927Z,26.65
2022-08-19T09:54:23.795Z,26.63
2022-08-19T09:55:22.997Z,26.63
2022-08-19T09:56:23.035Z,26.63
2022-08-19T09:57:23.059Z,26.63
2022-08-19T09:58:26.532Z,26.70
2022-08-19T09:59:23.146Z,26.82
2022-08-19T10:00:23.157Z,26.88
2022-08-19T10:01:23.217Z,26.89
2022-08-19T10:02:23.223Z,26.92
2022-08-19T10:03:25.640Z,27.03
2022-08-19T10:04:23.285Z,27.06
2022-08-19T10:05:27.001Z,27.14
2022-08-19T10:06:45.672Z,27.22
2022-08-19T10:07:23.384Z,27.21
2022-08-19T10:08:23.422Z,27.18
2022-08-19T10:09:33.627Z,27.14
2022-08-19T10:10:23.484Z,27.07
2022-08-19T10:11:28.650Z,27.06
2022-08-19T10:12:23.546Z,26.95
2022-08-19T10:13:23.578Z,27.06
2022-08-19T10:14:23.706Z,27.17
2022-08-19T10:15:28.765Z,27.25
2022-08-19T10:16:26.121Z,27.27
2022-08-19T10:17:27.426Z,27.28
2022-08-19T10:18:23.762Z,27.31
2022-08-19T10:19:25.455Z,27.22
2022-08-19T10:20:23.809Z,27.17
2022-08-19T10:21:23.844Z,27.12
2022-08-19T10:22:23.883Z,27.13
2022-08-19T10:23:23.909Z,27.24
2022-08-19T10:24:23.942Z,27.40
2022-08-19T10:25:23.974Z,27.37
2022-08-19T10:26:24.004Z,27.44
2022-08-19T10:27:24.042Z,27.57
2022-08-19T10:28:24.069Z,27.69
2022-08-19T10:29:32.643Z,27.84
2022-08-19T10:30:24.873Z,27.74
2022-08-19T10:32:00.969Z,27.87
2022-08-19T10:32:33.847Z,27.94
2022-08-19T10:33:38.296Z,28.03
2022-08-19T10:34:27.900Z,28.03
2022-08-19T10:35:24.305Z,28.02
2022-08-19T10:36:24.345Z,27.92
2022-08-19T10:37:29.121Z,28.00
2022-08-19T10:38:31.639Z,27.92
2022-08-19T10:39:24.460Z,27.92
2022-08-19T10:40:24.574Z,27.85
2022-08-19T10:41:24.504Z,27.79
2022-08-19T10:42:24.537Z,27.75
2022-08-19T10:43:24.608Z,27.70
2022-08-19T10:44:24.604Z,27.72
2022-08-19T10:45:24.635Z,27.74
2022-08-19T10:46:24.670Z,27.70
2022-08-19T10:47:26.109Z,27.65
2022-08-19T10:48:24.736Z,27.72
2022-08-19T10:49:24.766Z,27.75
2022-08-19T10:50:28.445Z,27.92
2022-08-19T10:51:24.835Z,27.96
2022-08-19T10:52:32.325Z,27.92
2022-08-19T10:53:24.913Z,28.03
2022-08-19T10:54:32.138Z,28.12
2022-08-19T10:55:24.971Z,28.19
2022-08-19T10:56:25.011Z,28.19
2022-08-19T10:57:27.904Z,28.17
2022-08-19T10:58:25.084Z,28.12
2022-08-19T10:59:26.858Z,28.29
2022-08-19T11:00:25.131Z,28.24
2022-08-19T11:01:25.199Z,28.22
2022-08-19T11:02:25.206Z,28.25
2022-08-19T11:03:25.234Z,28.12
2022-08-19T11:04:28.867Z,28.19
2022-08-19T11:05:25.303Z,28.29
2022-08-19T11:06:25.334Z,28.18
2022-08-19T11:07:25.373Z,28.21
2022-08-19T11:08:25.402Z,28.36
2022-08-19T11:09:33.275Z,28.44
2022-08-19T11:10:25.472Z,28.56
2022-08-19T11:11:25.509Z,28.76
2022-08-19T11:12:25.545Z,28.95
2022-08-19T11:13:25.635Z,29.18
2022-08-19T11:14:25.605Z,29.04
2022-08-19T11:15:25.638Z,29.12
2022-08-19T11:16:25.674Z,29.26
2022-08-19T11:17:25.713Z,29.43
2022-08-19T11:18:25.739Z,29.39
2022-08-19T11:19:25.774Z,29.33
2022-08-19T11:20:25.815Z,29.24
2022-08-19T11:21:25.843Z,29.06
2022-08-19T11:22:28.841Z,29.11
2022-08-19T11:23:25.909Z,29.11
2022-08-19T11:24:25.944Z,28.93
2022-08-19T11:25:25.978Z,28.96
2022-08-19T11:26:26.012Z,29.08
2022-08-19T11:27:26.049Z,29.05
2022-08-19T11:28:26.077Z,29.11
2022-08-19T11:29:26.113Z,29.02
2022-08-19T11:30:26.142Z,29.08
2022-08-19T11:31:28.934Z,29.04
2022-08-19T11:32:26.214Z,28.95
2022-08-19T11:33:26.252Z,28.90
2022-08-19T11:34:26.284Z,28.81
2022-08-19T11:35:26.320Z,28.89
2022-08-19T11:36:26.352Z,29.00
2022-08-19T11:37:26.386Z,28.90
2022-08-19T11:38:26.421Z,28.76
2022-08-19T11:39:26.453Z,28.67
2022-08-19T11:40:26.487Z,28.67
2022-08-19T11:41:26.524Z,28.46
2022-08-19T11:42:26.557Z,28.48
2022-08-19T11:43:26.586Z,28.51
2022-08-19T11:44:26.623Z,28.49
2022-08-19T11:45:26.670Z,28.44
2022-08-19T11:46:26.691Z,28.46
2022-08-19T11:47:26.720Z,28.27
2022-08-19T11:48:26.765Z,28.25
2022-08-19T11:49:26.792Z,28.31
2022-08-19T11:50:26.829Z,28.34
2022-08-19T11:51:26.859Z,28.48
2022-08-19T11:52:26.896Z,28.44
2022-08-19T11:53:26.931Z,28.51
2022-08-19T11:54:26.963Z,28.49
2022-08-19T11:55:26.990Z,28.49
2022-08-19T11:56:27.025Z,28.52
2022-08-19T11:57:27.060Z,28.36
2022-08-19T11:58:27.092Z,28.41
2022-08-19T11:59:27.139Z,28.52
2022-08-19T12:00:27.154Z,28.39
2022-08-19T12:01:27.194Z,28.43
2022-08-19T12:02:27.227Z,28.55
2022-08-19T12:03:27.328Z,28.64
2022-08-19T12:04:27.296Z,28.66
2022-08-19T12:05:27.326Z,28.61
2022-08-19T12:06:27.364Z,28.54
2022-08-19T12:07:27.395Z,28.39
2022-08-19T12:08:27.426Z,28.37
2022-08-19T12:09:27.459Z,28.34
2022-08-19T12:10:27.493Z,28.55
2022-08-19T12:11:27.528Z,28.51
2022-08-19T12:12:27.566Z,28.49
2022-08-19T12:13:27.592Z,28.61
2022-08-19T12:14:27.628Z,28.62
2022-08-19T12:15:27.662Z,28.61
2022-08-19T12:16:27.696Z,28.67
2022-08-19T12:17:27.738Z,28.62
2022-08-19T12:18:27.768Z,28.67
2022-08-19T12:19:27.810Z,28.74
2022-08-19T12:20:27.830Z,28.81
2022-08-19T12:21:27.861Z,28.77
2022-08-19T12:22:27.896Z,28.71
2022-08-19T12:23:27.933Z,28.67
2022-08-19T12:24:27.963Z,28.59
2022-08-19T12:25:27.999Z,28.62
2022-08-19T12:26:28.030Z,28.64
2022-08-19T12:27:32.138Z,28.66
2022-08-19T12:28:28.098Z,28.62
2022-08-19T12:29:28.133Z,28.64
2022-08-19T12:30:28.162Z,28.68
2022-08-19T12:31:28.199Z,28.73
2022-08-19T12:32:28.231Z,28.85
2022-08-19T12:33:28.267Z,28.88
2022-08-19T12:34:28.301Z,28.98
2022-08-19T12:35:28.333Z,28.96
2022-08-19T12:36:28.366Z,29.14
2022-08-19T12:37:28.399Z,29.24
2022-08-19T12:38:28.432Z,29.28
2022-08-19T12:39:28.468Z,29.26
2022-08-19T12:40:28.501Z,29.26
2022-08-19T12:41:28.535Z,29.21
2022-08-19T12:42:28.570Z,29.04
2022-08-19T12:43:28.599Z,28.93
2022-08-19T12:44:29.288Z,28.98
2022-08-19T12:45:28.666Z,28.88
2022-08-19T12:46:28.698Z,28.89
2022-08-19T12:47:28.738Z,28.90
2022-08-19T12:48:33.265Z,29.00
2022-08-19T12:49:52.007Z,28.90
2022-08-19T12:50:28.839Z,28.89
2022-08-19T12:51:28.876Z,28.85
2022-08-19T12:52:28.905Z,28.89
2022-08-19T12:53:28.940Z,28.93
2022-08-19T12:54:28.976Z,29.00
2022-08-19T12:55:29.010Z,28.93
2022-08-19T12:56:29.039Z,28.90
2022-08-19T12:57:32.933Z,28.68
2022-08-19T12:58:29.108Z,28.77
2022-08-19T12:59:29.145Z,28.76
2022-08-19T13:00:29.191Z,28.71
2022-08-19T13:03:38.691Z,29.06
2022-08-19T13:04:11.976Z,29.09
2022-08-19T13:07:08.937Z,29.09
2022-08-19T13:08:08.962Z,29.18
2022-08-19T13:10:13.465Z,29.02
2022-08-19T13:11:13.020Z,28.95
2022-08-19T13:13:17.053Z,28.78
2022-08-19T13:14:17.081Z,28.71
2022-08-19T13:16:21.594Z,28.76
2022-08-19T13:17:21.140Z,28.78
2022-08-19T13:19:25.174Z,28.98
2022-08-19T13:20:25.200Z,28.96
2022-08-19T13:22:30.220Z,29.05
2022-08-19T13:23:29.265Z,28.93
2022-08-19T13:25:33.763Z,28.96
2022-08-19T13:26:33.322Z,28.98
2022-08-19T13:28:37.392Z,29.26
2022-08-19T13:31:01.874Z,29.45
2022-08-19T13:32:01.446Z,29.49
2022-08-19T13:34:05.888Z,29.45
2022-08-19T13:35:05.711Z,29.55
2022-08-19T13:38:14.206Z,29.82
2022-08-19T13:39:13.766Z,29.92
2022-08-19T13:41:17.818Z,29.65
2022-08-19T13:42:17.841Z,29.60
2022-08-19T13:44:22.343Z,29.52
2022-08-19T13:45:21.902Z,29.43
2022-08-19T13:47:14.851Z,29.28
2022-08-19T13:48:14.878Z,29.31
2022-08-19T13:50:19.378Z,29.06
2022-08-19T13:52:49.909Z,29.08
2022-08-19T13:53:46.276Z,28.88
2022-08-19T13:54:43.022Z,28.76
2022-08-19T13:55:43.052Z,28.78
2022-08-19T13:56:43.085Z,28.89
2022-08-19T13:57:43.122Z,28.96
2022-08-19T13:58:43.155Z,29.04
2022-08-19T13:59:43.184Z,29.08
2022-08-19T14:00:43.315Z,29.11
2022-08-19T14:01:43.264Z,29.28
2022-08-19T14:02:43.290Z,29.31
2022-08-19T14:03:43.318Z,29.46
2022-08-19T14:04:43.356Z,29.49
2022-08-19T14:05:43.386Z,29.58
2022-08-19T14:06:43.423Z,29.67
2022-08-19T14:07:43.458Z,29.71
2022-08-19T14:08:46.246Z,29.87
2022-08-19T14:09:43.525Z,29.92
2022-08-19T14:10:43.579Z,29.94
2022-08-19T14:11:43.596Z,29.87
2022-08-19T14:12:43.631Z,30.00
2022-08-19T14:13:43.664Z,30.15
2022-08-19T14:14:43.700Z,30.24
2022-08-19T14:15:43.737Z,30.29
2022-08-19T14:16:43.766Z,30.26
2022-08-19T14:17:43.804Z,30.24
2022-08-19T14:18:43.839Z,30.35
2022-08-19T14:19:43.874Z,30.38
2022-08-19T14:20:43.912Z,30.26
2022-08-19T14:21:43.939Z,30.22
2022-08-19T14:22:43.975Z,30.11
2022-08-19T14:23:44.009Z,30.01
2022-08-19T14:24:47.786Z,29.92
2022-08-19T14:25:44.079Z,29.87
2022-08-19T14:26:44.112Z,29.94
2022-08-19T14:27:44.148Z,29.92
2022-08-19T14:28:44.184Z,29.90
2022-08-19T14:29:44.214Z,29.95
2022-08-19T14:30:44.252Z,30.00
2022-08-19T14:31:44.285Z,29.92
2022-08-19T14:32:44.349Z,29.95
2022-08-19T14:33:51.522Z,29.83
2022-08-19T14:35:37.847Z,29.78
2022-08-19T14:36:39.234Z,29.74
2022-08-19T14:38:41.859Z,29.64
2022-08-19T14:39:41.473Z,29.70
2022-08-19T14:40:41.456Z,29.68
2022-08-19T14:41:41.489Z,29.68
2022-08-19T14:42:41.522Z,29.70
2022-08-19T14:43:41.581Z,29.73
2022-08-19T14:44:41.593Z,29.74
2022-08-19T14:45:41.629Z,29.83
2022-08-19T14:46:41.656Z,29.83
2022-08-19T14:47:41.700Z,30.01
2022-08-19T14:48:41.732Z,29.95
2022-08-19T14:49:43.953Z,30.17
2022-08-19T14:50:41.795Z,30.17
2022-08-19T14:51:41.828Z,30.23
2022-08-19T14:52:41.866Z,30.29
2022-08-19T14:53:41.902Z,30.26
2022-08-19T14:54:41.935Z,30.29
2022-08-19T14:55:41.970Z,30.34
2022-08-19T14:56:42.005Z,30.43
2022-08-19T14:57:42.035Z,30.51
2022-08-19T14:58:42.120Z,30.38
2022-08-19T14:59:42.107Z,30.37
2022-08-19T15:00:42.157Z,30.20
2022-08-19T15:01:42.214Z,30.13
2022-08-19T15:02:42.269Z,30.19
2022-08-19T15:03:42.246Z,30.08
2022-08-19T15:04:42.280Z,29.98
2022-08-19T15:05:42.355Z,29.94